Latest Weather Observations for White Cliffs AWS

IDN60801

Issued at 8:32 pm EST Wednesday 2 September 2015 (issued every 30 minutes, with the page automatically refreshed every 10 minutes)

About weather observations | Map of weather stations | Latest weather observations for NSW | Other Formats
Station Details ID: 046129 Name: WHITE CLIFFS AWS Lat: -30.85 Lon: 143.07 Height: 158.0 m
Data from the previous 72 hours. | See also: Recent months at White Cliffs AWS
Date/Time
EST
Temp
°C
App
Temp
°C
Dew
Point
Rel
Hum
%
Delta-T
°C
Wind Press
QNH
hPa
Press
MSL
hPa
Rain
since 9 am
mm
Dir
 
Spd
km/h
Gust
km/h
Spd
kts
Gust
kts
02/08:30pm 12.5 7.6 4.0 56 3.9 NW 19 24 10 13 1007.7 1007.4 0.0
02/08:00pm 12.4 8.9 3.6 55 4.0 NW 11 11 6 6 1007.5 1007.2 0.0
02/07:30pm 12.9 9.5 3.8 54 4.1 WNW 11 13 6 7 1007.4 1007.1 0.0
02/07:00pm 14.1 9.9 3.6 49 4.8 WNW 15 19 8 10 1007.4 1007.1 0.0
02/06:30pm 15.6 10.6 3.7 45 5.5 W 19 24 10 13 1007.4 1007.1 0.0
02/06:00pm 16.5 9.7 3.2 41 6.2 W 28 43 15 23 1007.2 1006.9 0.0
02/05:30pm 17.1 8.6 3.1 39 6.5 W 37 48 20 26 1006.8 1006.5 0.0
02/05:00pm 17.8 8.8 2.5 36 7.1 W 39 52 21 28 1006.6 1006.2 0.0
02/04:30pm 19.0 9.5 1.5 31 8.0 W 41 54 22 29 1006.0 1005.6 0.0
02/04:00pm 19.4 9.6 2.3 32 8.0 W 43 54 23 29 1005.4 1005.0 0.0
02/03:30pm 18.9 11.5 5.0 40 6.8 W 33 54 18 29 1005.2 1004.8 0.0
02/03:29pm 19.1 12.1 5.9 42 6.6 WSW 32 54 17 29 1005.3 1004.9 0.0
02/03:00pm 17.2 9.7 8.1 55 4.7 WSW 37 50 20 27 1005.5 1005.1 0.0
02/02:53pm 16.9 8.4 9.3 61 4.0 WSW 44 63 24 34 1005.6 1005.2 0.0
02/02:49pm 16.8 8.2 10.4 66 3.4 WSW 46 63 25 34 1005.6 1005.2 0.0
02/02:33pm 21.2 13.9 5.5 36 7.9 W 33 56 18 30 1005.1 1004.7 0.0
02/02:30pm 22.0 14.6 5.0 33 8.5 WNW 33 44 18 24 1005.1 1004.7 0.0
02/02:00pm 22.3 14.6 5.3 33 8.6 W 35 46 19 25 1005.0 1004.6 0.0
02/01:30pm 24.5 17.7 7.6 34 9.0 WNW 33 46 18 25 1005.0 1004.6 0.0
02/01:00pm 24.1 16.5 7.7 35 8.7 W 37 43 20 23 1005.4 1005.0 0.0
02/12:50pm 23.5 16.8 7.2 35 8.5 NW 32 46 17 25 1005.4 1005.0 0.0
02/12:48pm 24.3 18.0 7.4 34 8.9 NW 30 46 16 25 1005.4 1005.0 0.0
02/12:30pm 23.6 19.6 9.2 40 7.8 NNW 20 28 11 15 1005.7 1005.3 0.0
02/12:00pm 22.2 16.2 8.7 42 7.2 NW 30 39 16 21 1006.6 1006.2 0.0
02/11:30am 21.4 17.4 8.3 43 6.9 N 19 26 10 14 1006.8 1006.5 0.0
02/11:00am 21.4 15.2 8.0 42 7.1 N 30 37 16 20 1006.7 1006.3 0.0
02/10:30am 21.6 15.9 6.7 38 7.6 NNE 26 32 14 17 1007.2 1006.9 0.0
02/10:00am 20.4 13.7 5.6 38 7.4 NNE 30 35 16 19 1007.5 1007.2 0.0
02/09:30am 19.2 10.1 2.1 32 7.9 NNE 39 54 21 29 1008.7 1008.4 0.0
02/09:00am 18.4 9.6 1.4 32 7.7 NNE 37 46 20 25 1008.9 1008.6 0.0
02/08:30am 18.8 11.9 0.4 29 8.2 NE 26 37 14 20 1009.5 1009.2 0.0
02/08:00am 15.5 11.5 2.7 42 5.8 ENE 13 17 7 9 1009.1 1008.8 0.0
02/07:30am 15.1 10.3 2.6 43 5.6 ENE 17 20 9 11 1009.2 1008.9 0.0
02/07:00am 14.2 10.1 0.1 38 6.0 ENE 11 20 6 11 1009.6 1009.3 0.0
02/06:30am 14.8 9.1 -0.5 35 6.4 NE 19 26 10 14 1009.5 1009.2 0.0
02/06:00am 13.8 9.3 -0.3 38 5.9 ENE 13 24 7 13 1009.9 1009.5 0.0
02/05:30am 15.1 8.9 -0.6 34 6.6 NE 22 26 12 14 1009.7 1009.4 0.0
02/05:00am 12.8 8.5 1.2 45 5.0 ENE 13 17 7 9 1010.0 1009.6 0.0
02/04:30am 13.9 8.9 1.2 42 5.5 ENE 17 20 9 11 1009.9 1009.5 0.0
02/04:00am 13.3 8.5 2.8 49 4.7 E 17 20 9 11 1010.4 1010.0 0.0
02/03:30am 13.4 9.1 3.5 51 4.5 E 15 19 8 10 1010.8 1010.4 0.0
02/03:00am 13.1 9.4 4.5 56 4.0 E 13 17 7 9 1011.3 1010.9 0.0
02/02:30am 13.8 10.1 4.4 53 4.4 E 13 13 7 7 1011.8 1011.4 0.0
02/02:00am 14.8 11.1 4.2 49 4.9 ENE 13 15 7 8 1012.2 1011.8 0.0
02/01:30am 15.4 12.5 4.5 48 5.1 ENE 9 11 5 6 1012.7 1012.4 0.0
02/01:00am 15.8 13.1 3.6 44 5.7 N 7 9 4 5 1013.1 1012.8 0.0
02/12:30am 15.9 13.7 3.4 43 5.8 NNW 4 7 2 4 1013.3 1013.0 0.0
02/12:00am 16.2 12.6 2.9 41 6.1 N 11 13 6 7 1013.3 1013.0 0.0
 
Date/Time
EST
Temp
°C
App
Temp
°C
Dew
Point
Rel
Hum
%
Delta-T
°C
Wind Press
QNH
hPa
Press
MSL
hPa
Rain
since 9 am
mm
Dir
 
Spd
km/h
Gust
km/h
Spd
kts
Gust
kts
01/11:30pm 16.4 13.1 2.4 39 6.4 N 9 11 5 6 1013.3 1013.0 0.0
01/11:00pm 16.7 13.6 1.2 35 6.9 NNE 7 11 4 6 1013.1 1012.8 0.0
01/10:30pm 16.6 12.8 1.5 36 6.7 NNE 11 13 6 7 1013.3 1013.0 0.0
01/10:00pm 17.0 12.6 0.2 32 7.3 NE 13 15 7 8 1013.0 1012.7 0.0
01/09:30pm 18.0 12.7 -0.8 28 8.1 N 17 24 9 13 1013.6 1013.3 0.0
01/09:00pm 17.8 13.3 0.0 30 7.8 N 13 17 7 9 1014.0 1013.7 0.0
01/08:30pm 17.5 13.5 0.2 31 7.6 N 11 13 6 7 1014.0 1013.7 0.0
01/08:00pm 17.4 13.7 0.1 31 7.5 N 9 11 5 6 1014.0 1013.7 0.0
01/07:30pm 18.3 14.0 -1.5 26 8.4 NNW 11 13 6 7 1014.0 1013.7 0.0
01/07:00pm 18.4 14.1 -2.0 25 8.6 NNW 11 13 6 7 1013.8 1013.5 0.0
01/06:30pm 18.9 14.2 -2.1 24 8.9 N 13 17 7 9 1013.4 1013.1 0.0
01/06:00pm 19.6 15.5 -2.7 22 9.4 N 9 13 5 7 1013.3 1013.0 0.0
01/05:30pm 20.0 15.1 -3.6 20 9.8 N 13 17 7 9 1013.3 1013.0 0.0
01/05:00pm 20.4 14.3 -4.0 19 10.1 NNW 19 24 10 13 1013.3 1013.0 0.0
01/04:30pm 20.5 15.5 -3.9 19 10.1 N 13 19 7 10 1013.4 1013.1 0.0
01/04:00pm 20.5 15.1 -4.6 18 10.2 NNE 15 24 8 13 1013.4 1013.1 0.0
01/03:30pm 21.0 15.5 -2.1 21 10.0 NNE 17 24 9 13 1013.6 1013.3 0.0
01/03:00pm 20.0 15.1 -3.0 21 9.6 NNE 13 20 7 11 1013.8 1013.5 0.0
01/02:30pm 20.4 15.7 -2.0 22 9.6 NNE 13 26 7 14 1014.0 1013.7 0.0
01/02:00pm 19.9 14.8 -1.8 23 9.3 NNW 15 20 8 11 1014.8 1014.5 0.0
01/01:30pm 19.9 14.8 -1.8 23 9.3 NNE 15 24 8 13 1015.0 1014.7 0.0
01/01:00pm 19.5 15.2 -1.6 24 9.0 NNE 11 22 6 12 1015.8 1015.5 0.0
01/12:30pm 19.1 14.9 -0.8 26 8.7 NNE 11 19 6 10 1016.5 1016.1 0.0
01/12:00pm 18.8 15.0 -0.6 27 8.4 NNE 9 19 5 10 1017.0 1016.6 0.0
01/11:30am 18.6 14.5 -0.2 28 8.2 NNE 11 19 6 10 1017.2 1016.8 0.0
01/11:00am 18.2 13.4 -0.1 29 8.0 N 15 20 8 11 1017.7 1017.4 0.0
01/10:30am 17.3 12.0 -0.4 30 7.6 N 17 24 9 13 1017.8 1017.5 0.0
01/10:00am 17.1 11.9 0.3 32 7.3 N 17 22 9 12 1018.1 1017.8 0.0
01/09:30am 15.9 11.1 0.1 34 6.8 N 15 19 8 10 1018.0 1017.9 0.0
01/09:00am 14.8 10.9 1.0 39 6.0 NNE 11 15 6 8 1018.2 1018.1 0.0
01/08:30am 12.6 9.2 1.9 48 4.6 N 9 11 5 6 1018.3 1018.2 0.0
01/08:00am 10.0 7.2 2.1 58 3.4 N 6 9 3 5 1018.2 1018.1 0.0
01/07:30am 7.2 4.0 0.9 64 2.5 NNW 7 9 4 5 1018.1 1018.0 0.0
01/07:00am 6.3 3.1 0.6 67 2.2 NNE 7 7 4 4 1017.8 1017.7 0.0
01/06:30am 6.5 3.4 0.4 65 2.4 NE 6 7 3 4 1017.4 1017.3 0.0
01/06:00am 7.0 3.9 0.2 62 2.7 ENE 6 7 3 4 1017.5 1017.4 0.0
01/05:30am 7.2 3.5 0.2 61 2.8 E 9 11 5 6 1017.3 1017.2 0.0
01/05:00am 7.6 3.5 0.1 59 3.0 E 11 11 6 6 1017.0 1016.9 0.0
01/04:30am 7.7 3.7 0.2 59 3.0 ESE 11 13 6 7 1016.8 1016.7 0.0
01/04:00am 9.1 5.4 0.0 53 3.6 ESE 9 11 5 6 1017.0 1016.9 0.0
01/03:30am 9.2 6.1 0.4 54 3.6 E 6 7 3 4 1017.2 1017.1 0.0
01/03:00am 9.0 5.8 0.5 55 3.4 ENE 7 9 4 5 1017.5 1017.4 0.0
01/02:30am 8.6 5.5 0.3 56 3.3 ENE 6 7 3 4 1017.8 1017.7 0.0
01/02:00am 9.5 6.2 0.4 53 3.7 E 7 9 4 5 1018.0 1017.9 0.0
01/01:30am 9.4 5.8 0.3 53 3.7 E 9 9 5 5 1018.3 1018.2 0.0
01/01:00am 9.9 6.7 0.5 52 3.8 E 7 9 4 5 1018.6 1018.5 0.0
01/12:30am 8.1 4.9 0.8 60 3.0 E 7 9 4 5 1018.7 1018.6 0.0
01/12:00am 9.6 6.5 1.3 56 3.4 SE 7 9 4 5 1018.9 1018.8 0.0
 
Date/Time
EST
Temp
°C
App
Temp
°C
Dew
Point
Rel
Hum
%
Delta-T
°C
Wind Press
QNH
hPa
Press
MSL
hPa
Rain
since 9 am
mm
Dir
 
Spd
km/h
Gust
km/h
Spd
kts
Gust
kts
31/11:30pm 10.9 9.1 0.9 50 4.2 CALM 0 0 0 0 1018.9 1018.8 0.0
31/11:00pm 10.3 7.2 1.2 53 3.8 S 7 11 4 6 1019.1 1019.1 0.0
31/10:30pm 10.8 8.9 0.5 49 4.3 CALM 0 0 0 0 1019.3 1019.3 0.0
31/10:00pm 11.8 8.6 0.9 47 4.6 W 7 7 4 4 1019.2 1019.2 0.0
31/09:30pm 12.1 9.5 0.8 46 4.8 SE 4 9 2 5 1019.3 1019.3 0.0
31/09:00pm 11.9 8.8 0.4 45 4.8 E 6 7 3 4 1019.1 1019.1 0.0
31/08:30pm 13.6 10.3 -0.1 39 5.7 E 7 7 4 4 1018.9 1018.8 0.0
31/08:00pm 13.3 10.0 0.0 40 5.6 E 7 9 4 5 1018.7 1018.6 0.0
31/07:30pm 14.2 10.8 -0.3 37 6.1 ESE 7 9 4 5 1018.5 1018.4 0.0
31/07:00pm 14.5 12.0 -0.8 35 6.4 SE 2 9 1 5 1018.3 1018.2 0.0
31/06:30pm 16.3 13.8 -0.8 31 7.2 SSE 2 6 1 3 1018.3 1018.2 0.0
31/06:00pm 17.5 14.2 -1.2 28 7.9 SSW 6 9 3 5 1018.3 1018.2 0.0
31/05:30pm 18.3 15.4 -1.0 27 8.3 SSW 4 9 2 5 1018.2 1018.1 0.0
31/05:00pm 18.5 14.7 -0.8 27 8.3 SW 9 13 5 7 1018.2 1018.1 0.0
31/04:30pm 18.7 15.3 -0.7 27 8.4 SW 7 15 4 8 1018.3 1018.2 0.0
31/04:00pm 18.1 13.8 -1.7 26 8.4 SSW 11 17 6 9 1018.4 1018.3 0.0
31/03:30pm 18.3 13.7 -1.0 27 8.3 SW 13 19 7 10 1018.5 1018.4 0.0
31/03:00pm 18.2 14.2 0.4 30 7.8 SW 11 17 6 9 1018.5 1018.4 0.0
31/02:30pm 17.6 13.6 0.3 31 7.6 SSW 11 17 6 9 1018.9 1018.8 0.0
31/02:00pm 18.0 13.9 -0.3 29 7.9 SW 11 19 6 10 1019.3 1019.3 0.0
31/01:30pm 17.2 14.0 0.8 33 7.2 SE 7 11 4 6 1019.8 1019.8 0.0
31/01:00pm 16.4 12.5 0.9 35 6.8 SW 11 20 6 11 1020.3 1020.3 0.0
31/12:30pm 16.6 12.3 1.1 35 6.9 SSE 13 20 7 11 1020.7 1020.7 0.0
31/12:00pm 16.4 12.5 1.3 36 6.7 WSW 11 22 6 12 1021.2 1021.2 0.0
31/11:30am 15.4 11.1 1.2 38 6.2 S 13 20 7 11 1021.6 1021.6 0.0
31/11:00am 15.1 11.0 2.0 41 5.8 S 13 20 7 11 1022.1 1022.1 0.0
31/10:30am 14.6 10.5 2.5 44 5.4 S 13 22 7 12 1022.2 1022.2 0.0
31/10:00am 14.0 9.9 2.0 44 5.3 SSW 13 19 7 10 1022.3 1022.3 0.0
31/09:30am 13.3 9.3 3.1 50 4.6 SSW 13 17 7 9 1022.4 1022.4 0.0
31/09:00am 12.3 8.7 3.0 53 4.1 SSW 11 15 6 8 1022.4 1022.4 0.0
31/08:30am 11.1 7.5 2.7 56 3.7 SSW 11 15 6 8 1022.1 1022.1 0.0
31/08:00am 8.7 5.4 2.7 66 2.5 SSW 9 11 5 6 1021.7 1021.7 0.0
31/07:30am 7.3 3.2 2.4 71 2.0 SSW 13 15 7 8 1021.6 1021.6 0.0
31/07:00am 6.1 1.2 2.2 76 1.6 SSW 17 17 9 9 1021.3 1021.3 0.0
31/06:30am 4.5 0.7 2.0 84 1.0 SSW 11 13 6 7 1021.0 1021.0 0.0
31/06:00am 3.7 -0.2 1.4 85 0.9 WSW 11 11 6 6 1020.8 1020.8 0.0
31/05:30am 3.6 0.1 1.3 85 0.9 W 9 11 5 6 1020.8 1020.8 0.0
31/05:00am 4.0 0.1 1.4 83 1.0 WNW 11 13 6 7 1020.7 1020.7 0.0
31/04:30am 5.1 2.1 1.8 79 1.3 W 7 9 4 5 1020.5 1020.5 0.0
31/04:00am 6.9 2.8 2.2 72 1.9 S 13 13 7 7 1020.6 1020.6 0.0
31/03:30am 6.9 2.4 2.4 73 1.9 S 15 15 8 8 1020.8 1020.8 0.0
31/03:00am 6.9 2.8 2.4 73 1.9 S 13 15 7 8 1021.1 1021.1 0.0
31/02:30am 6.9 2.5 2.6 74 1.8 SSW 15 17 8 9 1021.5 1021.5 0.0
31/02:00am 7.1 2.7 2.6 73 1.9 SSW 15 15 8 8 1021.8 1021.8 0.0
31/01:30am 7.3 3.3 2.8 73 1.9 SSW 13 15 7 8 1022.1 1022.1 0.0
31/01:00am 7.7 3.4 3.0 72 2.0 SSW 15 17 8 9 1022.1 1022.1 0.0
31/12:30am 7.7 3.8 3.2 73 1.9 SSW 13 15 7 8 1022.2 1022.2 0.0
31/12:00am 7.5 3.9 2.8 72 2.0 SW 11 13 6 7 1022.4 1022.4 0.0
 
Date/Time
EST
Temp
°C
App
Temp
°C
Dew
Point
Rel
Hum
%
Delta-T
°C
Wind Press
QNH
hPa
Press
MSL
hPa
Rain
since 9 am
mm
Dir
 
Spd
km/h
Gust
km/h
Spd
kts
Gust
kts
30/11:30pm 8.7 5.4 2.7 66 2.6 SSE 9 13 5 7 1022.5 1022.5 0.0
30/11:00pm 9.7 6.5 3.0 63 2.9 SE 9 11 5 6 1022.5 1022.5 0.0
30/10:30pm 9.8 6.2 3.1 63 2.9 SSE 11 15 6 8 1022.7 1022.7 0.0
30/10:00pm 10.3 6.3 2.9 60 3.2 SSE 13 15 7 8 1022.8 1022.8 0.0
30/09:30pm 10.9 6.9 2.7 57 3.6 SSE 13 15 7 8 1022.9 1022.9 0.0
30/09:00pm 11.5 7.1 2.8 55 3.8 SSE 15 17 8 9 1022.6 1022.6 0.0

Other Formats:

Comma delimited format used in spreadsheet applications
http://www.bom.gov.au/fwo/IDN60801/IDN60801.95699.axf

JavaScript Object Notation format (JSON) in row-major order
http://www.bom.gov.au/fwo/IDN60801/IDN60801.95699.json